createdAt,value
2018-09-08T00:00:45.227Z,18.79
2018-09-08T00:05:38.339Z,18.74
2018-09-08T00:10:31.390Z,18.69
2018-09-08T00:15:29.754Z,18.73
2018-09-08T00:20:28.581Z,18.57
2018-09-08T00:25:27.047Z,18.41
2018-09-08T00:30:20.219Z,18.40
2018-09-08T00:35:13.306Z,18.27
2018-09-08T00:40:06.376Z,18.35
2018-09-08T00:44:59.436Z,18.33
2018-09-08T00:49:52.510Z,18.28
2018-09-08T00:54:52.290Z,18.27
2018-09-08T00:59:45.350Z,18.27
2018-09-08T01:04:38.732Z,18.40
2018-09-08T01:09:31.712Z,18.58
2018-09-08T01:14:24.722Z,18.60
2018-09-08T01:19:17.710Z,18.64
2018-09-08T01:24:10.643Z,18.71
2018-09-08T01:29:03.718Z,18.64
2018-09-08T01:33:56.770Z,18.76
2018-09-08T01:38:49.806Z,18.87
2018-09-08T01:43:42.936Z,18.79
2018-09-08T01:48:36.191Z,18.59
2018-09-08T01:53:29.234Z,18.71
2018-09-08T01:58:22.283Z,18.62
2018-09-08T02:03:15.536Z,18.58
2018-09-08T02:08:08.628Z,18.60
2018-09-08T02:13:01.749Z,18.53
2018-09-08T02:17:54.811Z,18.45
2018-09-08T02:22:47.854Z,18.44
2018-09-08T02:27:41.159Z,18.36
2018-09-08T02:32:34.310Z,18.30
2018-09-08T02:37:27.297Z,18.17
2018-09-08T02:42:20.436Z,18.33
2018-09-08T02:47:13.592Z,18.46
2018-09-08T02:52:05.324Z,18.42
2018-09-08T02:56:56.916Z,18.42
2018-09-08T03:01:48.633Z,18.24
2018-09-08T03:06:40.327Z,18.05
2018-09-08T03:11:31.975Z,18.03
2018-09-08T03:16:23.699Z,18.07
2018-09-08T03:21:15.319Z,18.01
2018-09-08T03:26:06.996Z,17.96
2018-09-08T03:30:58.547Z,17.93
2018-09-08T03:35:50.575Z,17.92
2018-09-08T03:40:42.280Z,18.00
2018-09-08T03:45:33.945Z,17.97
2018-09-08T03:50:25.700Z,18.10
2018-09-08T03:55:17.263Z,18.02
2018-09-08T04:00:08.850Z,18.01
2018-09-08T04:05:01.894Z,17.97
2018-09-08T04:09:55.040Z,18.05
2018-09-08T04:14:48.195Z,18.23
2018-09-08T04:19:41.155Z,18.22
2018-09-08T04:24:34.193Z,18.30
2018-09-08T04:29:27.379Z,18.27
2018-09-08T04:34:20.283Z,18.23
2018-09-08T04:39:13.386Z,18.37
2018-09-08T04:44:06.596Z,18.38
2018-09-08T04:49:00.711Z,18.49
2018-09-08T04:53:53.786Z,18.66
2018-09-08T04:58:46.806Z,18.72
2018-09-08T05:03:39.726Z,18.97
2018-09-08T05:08:32.785Z,19.13
2018-09-08T05:13:25.895Z,19.41
2018-09-08T05:18:19.039Z,19.56
2018-09-08T05:23:12.725Z,19.82
2018-09-08T05:28:05.674Z,20.22
2018-09-08T05:32:59.155Z,20.42
2018-09-08T05:37:52.903Z,20.71
2018-09-08T05:42:46.110Z,20.98
2018-09-08T05:47:39.658Z,21.70
2018-09-08T05:52:32.982Z,22.15
2018-09-08T05:57:28.366Z,22.70
2018-09-08T06:02:23.088Z,22.93
2018-09-08T06:07:20.304Z,23.12
2018-09-08T06:12:20.609Z,23.22
2018-09-08T06:17:15.304Z,23.35
2018-09-08T06:22:11.522Z,23.47
2018-09-08T06:27:04.912Z,23.50
2018-09-08T06:31:58.860Z,23.62
2018-09-08T06:36:54.810Z,23.79
2018-09-08T06:41:49.009Z,23.90
2018-09-08T06:46:42.192Z,23.98
2018-09-08T06:51:36.222Z,24.07
2018-09-08T06:56:30.008Z,24.12
2018-09-08T07:01:23.228Z,24.23
2018-09-08T07:06:16.373Z,24.32
2018-09-08T07:11:09.965Z,24.30
2018-09-08T07:16:05.358Z,24.45
2018-09-08T07:20:59.614Z,24.53
2018-09-08T07:25:54.348Z,24.53
2018-09-08T07:30:47.462Z,24.54
2018-09-08T07:35:40.788Z,24.60
2018-09-08T07:40:33.767Z,24.84
2018-09-08T07:45:26.865Z,24.80
2018-09-08T07:50:20.043Z,24.91
2018-09-08T07:55:13.273Z,24.89
2018-09-08T08:00:06.581Z,24.91
2018-09-08T08:04:59.602Z,25.02
2018-09-08T08:09:52.609Z,25.00
2018-09-08T08:14:45.680Z,25.16
2018-09-08T08:19:39.022Z,25.40
2018-09-08T08:24:32.037Z,25.20
2018-09-08T08:29:26.126Z,25.34
2018-09-08T08:34:19.396Z,25.32
2018-09-08T08:39:12.493Z,25.49
2018-09-08T08:44:05.500Z,25.67
2018-09-08T08:48:58.741Z,25.83
2018-09-08T08:54:02.700Z,25.86
2018-09-08T08:58:55.748Z,25.74
2018-09-08T09:03:48.712Z,26.08
2018-09-08T09:08:44.898Z,26.05
2018-09-08T09:13:37.600Z,26.07
2018-09-08T09:18:41.968Z,26.32
2018-09-08T09:24:43.740Z,26.43
2018-09-08T09:29:36.379Z,26.49
2018-09-08T09:34:29.467Z,26.55
2018-09-08T09:39:27.760Z,26.64
2018-09-08T09:44:20.954Z,26.67
2018-09-08T09:49:14.248Z,26.59
2018-09-08T09:54:07.313Z,26.50
2018-09-08T09:59:00.963Z,26.35
2018-09-08T10:03:53.925Z,26.38
2018-09-08T10:08:46.931Z,26.33
2018-09-08T10:13:39.940Z,26.32
2018-09-08T10:18:33.021Z,26.30
2018-09-08T10:23:26.231Z,26.38
2018-09-08T10:28:26.750Z,26.55
2018-09-08T10:33:21.134Z,26.79
2018-09-08T10:38:14.400Z,27.34
2018-09-08T10:43:07.434Z,27.68
2018-09-08T10:48:00.405Z,27.56
2018-09-08T10:52:53.587Z,27.34
2018-09-08T10:57:46.607Z,27.15
2018-09-08T11:02:40.013Z,26.85
2018-09-08T11:07:32.831Z,26.65
2018-09-08T11:12:25.906Z,26.96
2018-09-08T11:17:18.940Z,26.96
2018-09-08T11:22:12.164Z,26.89
2018-09-08T11:27:05.432Z,26.87
2018-09-08T11:31:58.647Z,27.03
2018-09-08T11:36:51.703Z,27.22
2018-09-08T11:41:45.318Z,27.22
2018-09-08T11:46:38.307Z,27.49
2018-09-08T11:51:31.744Z,27.32
2018-09-08T11:56:24.824Z,27.24
2018-09-08T12:01:17.863Z,27.11
2018-09-08T12:06:11.023Z,27.15
2018-09-08T12:11:04.143Z,27.27
2018-09-08T12:15:57.146Z,27.37
2018-09-08T12:20:50.381Z,27.48
2018-09-08T12:25:43.435Z,27.36
2018-09-08T12:30:36.563Z,27.39
2018-09-08T12:35:30.617Z,27.41
2018-09-08T12:40:23.634Z,27.45
2018-09-08T12:45:16.771Z,27.24
2018-09-08T12:50:09.923Z,27.36
2018-09-08T12:55:02.936Z,27.42
2018-09-08T12:59:56.017Z,27.33
2018-09-08T13:04:49.046Z,27.15
2018-09-08T13:09:42.090Z,27.25
2018-09-08T13:14:35.322Z,27.38
2018-09-08T13:19:29.569Z,27.51
2018-09-08T13:24:23.025Z,27.70
2018-09-08T13:29:16.436Z,27.51
2018-09-08T13:34:09.497Z,27.53
2018-09-08T13:39:02.703Z,27.40
2018-09-08T13:43:55.835Z,27.24
2018-09-08T13:48:49.030Z,27.23
2018-09-08T13:53:42.973Z,27.12
2018-09-08T13:58:36.225Z,27.13
2018-09-08T14:03:29.468Z,26.91
2018-09-08T14:08:22.726Z,26.77
2018-09-08T14:13:15.783Z,26.67
2018-09-08T14:18:10.608Z,26.54
2018-09-08T14:23:03.880Z,26.43
2018-09-08T14:27:57.134Z,26.42
2018-09-08T14:32:50.915Z,26.48
2018-09-08T14:37:44.328Z,26.34
2018-09-08T14:42:37.912Z,26.53
2018-09-08T14:52:46.479Z,26.48
2018-09-08T14:57:39.539Z,26.52
2018-09-08T15:02:32.580Z,26.43
2018-09-08T15:07:25.659Z,26.35
2018-09-08T15:12:18.758Z,26.55
2018-09-08T15:17:12.173Z,26.61
2018-09-08T15:22:05.254Z,26.82
2018-09-08T15:26:58.585Z,26.70
2018-09-08T15:31:51.835Z,26.53
2018-09-08T15:36:45.057Z,26.25
2018-09-08T15:41:38.339Z,26.07
2018-09-08T15:46:31.677Z,25.84
2018-09-08T15:51:24.991Z,25.60
2018-09-08T15:56:18.134Z,25.42
2018-09-08T16:01:11.708Z,25.23
2018-09-08T16:06:05.243Z,25.23
2018-09-08T16:10:58.606Z,25.22
2018-09-08T16:15:52.091Z,25.11
2018-09-08T16:20:45.462Z,25.08
2018-09-08T16:25:38.844Z,24.97
2018-09-08T16:30:32.207Z,24.82
2018-09-08T16:35:26.081Z,24.90
2018-09-08T16:40:19.591Z,24.85
2018-09-08T16:45:12.882Z,24.69
2018-09-08T16:50:06.243Z,24.32
2018-09-08T16:54:59.881Z,24.07
2018-09-08T16:59:53.211Z,24.05
2018-09-08T17:04:46.384Z,23.82
2018-09-08T17:09:39.899Z,23.57
2018-09-08T17:14:33.471Z,23.33
2018-09-08T17:19:26.427Z,23.19
2018-09-08T17:24:19.485Z,23.08
2018-09-08T17:29:12.703Z,22.96
2018-09-08T17:34:05.842Z,22.72
2018-09-08T17:38:59.017Z,22.63
2018-09-08T17:43:52.106Z,22.44
2018-09-08T17:48:45.242Z,22.28
2018-09-08T17:53:38.373Z,22.27
2018-09-08T17:58:31.493Z,22.09
2018-09-08T18:03:24.583Z,21.97
2018-09-08T18:08:19.268Z,21.89
2018-09-08T18:13:12.397Z,21.71
2018-09-08T18:18:05.427Z,21.73
2018-09-08T18:22:58.579Z,21.25
2018-09-08T18:27:51.627Z,21.03
2018-09-08T18:32:44.960Z,21.05
2018-09-08T18:37:37.935Z,21.23
2018-09-08T18:42:31.022Z,21.29
2018-09-08T18:47:24.151Z,21.35
2018-09-08T18:52:17.199Z,21.06
2018-09-08T18:57:10.177Z,21.00
2018-09-08T19:02:03.273Z,20.88
2018-09-08T19:06:56.430Z,20.88
2018-09-08T19:11:49.500Z,20.88
2018-09-08T19:16:42.508Z,21.07
2018-09-08T19:21:35.506Z,21.10
2018-09-08T19:26:28.519Z,21.21
2018-09-08T19:31:21.417Z,21.33
2018-09-08T19:36:14.449Z,21.41
2018-09-08T19:41:07.531Z,21.40
2018-09-08T19:46:04.958Z,21.38
2018-09-08T19:50:57.899Z,21.44
2018-09-08T19:55:50.889Z,21.30
2018-09-08T20:00:43.855Z,21.11
2018-09-08T20:05:37.332Z,20.90
2018-09-08T20:10:30.322Z,20.93
2018-09-08T20:15:23.607Z,20.95
2018-09-08T20:20:17.143Z,20.90
2018-09-08T20:25:10.382Z,21.02
2018-09-08T20:30:03.427Z,20.97
2018-09-08T20:34:56.455Z,20.92
2018-09-08T20:39:53.680Z,21.04
2018-09-08T20:44:46.719Z,20.86
2018-09-08T20:49:39.737Z,20.71
2018-09-08T20:54:32.755Z,20.77
2018-09-08T20:59:25.782Z,20.91
2018-09-08T21:04:18.884Z,21.01
2018-09-08T21:09:11.830Z,21.10
2018-09-08T21:14:04.750Z,20.96
2018-09-08T21:18:57.827Z,20.76
2018-09-08T21:23:50.874Z,20.77
2018-09-08T21:28:43.980Z,21.08
2018-09-08T21:33:37.198Z,21.62
2018-09-08T21:38:30.242Z,21.77
2018-09-08T21:43:23.225Z,21.54
2018-09-08T21:48:16.310Z,21.22
2018-09-08T21:53:09.511Z,21.12
2018-09-08T21:58:02.434Z,20.97
2018-09-08T22:02:56.155Z,20.80
2018-09-08T22:07:49.267Z,20.63
2018-09-08T22:12:42.302Z,20.72
2018-09-08T22:17:35.368Z,20.48
2018-09-08T22:22:28.449Z,20.50
2018-09-08T22:27:21.341Z,20.25
2018-09-08T22:32:14.381Z,20.12
2018-09-08T22:37:07.581Z,20.10
2018-09-08T22:42:00.703Z,19.87
2018-09-08T22:46:53.659Z,20.01
2018-09-08T22:51:46.652Z,20.10
2018-09-08T22:56:39.768Z,19.94
2018-09-08T23:01:32.736Z,19.85
2018-09-08T23:06:26.191Z,19.90
2018-09-08T23:11:19.202Z,19.93
2018-09-08T23:16:12.134Z,19.92
2018-09-08T23:21:05.346Z,19.68
2018-09-08T23:25:58.338Z,19.53
2018-09-08T23:30:51.478Z,19.43
2018-09-08T23:35:44.394Z,19.43
2018-09-08T23:40:37.419Z,19.53
2018-09-08T23:45:30.394Z,19.74
2018-09-08T23:50:23.489Z,19.78
2018-09-08T23:55:16.532Z,19.74
